sensor_id;sensor_type;location;lat;lon;timestamp;temperature;humidity
10788;DHT22;5446;50.826;4.380;2023-04-29T00:02:17;11.30;99.90
10788;DHT22;5446;50.826;4.380;2023-04-29T00:04:43;11.30;99.90
10788;DHT22;5446;50.826;4.380;2023-04-29T00:07:09;11.30;99.90
10788;DHT22;5446;50.826;4.380;2023-04-29T00:09:35;11.20;99.90
10788;DHT22;5446;50.826;4.380;2023-04-29T00:12:02;11.20;99.90
10788;DHT22;5446;50.826;4.380;2023-04-29T00:14:28;11.10;99.90
10788;DHT22;5446;50.826;4.380;2023-04-29T00:16:53;10.90;99.90
10788;DHT22;5446;50.826;4.380;2023-04-29T00:19:19;10.80;99.90
10788;DHT22;5446;50.826;4.380;2023-04-29T00:21:45;10.80;99.90
10788;DHT22;5446;50.826;4.380;2023-04-29T00:24:11;10.60;99.90
10788;DHT22;5446;50.826;4.380;2023-04-29T00:26:36;10.60;99.90
10788;DHT22;5446;50.826;4.380;2023-04-29T00:29:02;10.50;99.90
10788;DHT22;5446;50.826;4.380;2023-04-29T00:31:28;10.40;99.90
10788;DHT22;5446;50.826;4.380;2023-04-29T00:33:56;10.40;99.90
10788;DHT22;5446;50.826;4.380;2023-04-29T00:36:22;10.40;99.90
10788;DHT22;5446;50.826;4.380;2023-04-29T00:38:48;10.40;99.90
10788;DHT22;5446;50.826;4.380;2023-04-29T00:41:13;10.40;99.90
10788;DHT22;5446;50.826;4.380;2023-04-29T00:43:39;10.40;99.90
10788;DHT22;5446;50.826;4.380;2023-04-29T00:46:05;10.40;99.90
10788;DHT22;5446;50.826;4.380;2023-04-29T00:48:31;10.40;99.90
10788;DHT22;5446;50.826;4.380;2023-04-29T00:50:57;10.40;99.90
10788;DHT22;5446;50.826;4.380;2023-04-29T00:53:24;10.40;99.90
10788;DHT22;5446;50.826;4.380;2023-04-29T00:55:50;10.40;99.90
10788;DHT22;5446;50.826;4.380;2023-04-29T00:58:17;10.40;99.90
10788;DHT22;5446;50.826;4.380;2023-04-29T01:00:45;10.30;99.90
10788;DHT22;5446;50.826;4.380;2023-04-29T01:03:12;10.30;99.90
10788;DHT22;5446;50.826;4.380;2023-04-29T01:05:38;10.30;99.90
10788;DHT22;5446;50.826;4.380;2023-04-29T01:11:07;10.30;99.90
10788;DHT22;5446;50.826;4.380;2023-04-29T01:13:45;10.30;99.90
10788;DHT22;5446;50.826;4.380;2023-04-29T01:16:43;10.30;99.90
10788;DHT22;5446;50.826;4.380;2023-04-29T01:21:48;10.30;99.90
10788;DHT22;5446;50.826;4.380;2023-04-29T01:24:15;10.20;99.90
10788;DHT22;5446;50.826;4.380;2023-04-29T01:26:48;10.30;99.90
10788;DHT22;5446;50.826;4.380;2023-04-29T01:29:26;10.20;99.90
10788;DHT22;5446;50.826;4.380;2023-04-29T01:32:04;10.10;99.90
10788;DHT22;5446;50.826;4.380;2023-04-29T01:34:47;10.20;99.90
10788;DHT22;5446;50.826;4.380;2023-04-29T01:37:30;10.20;99.90
10788;DHT22;5446;50.826;4.380;2023-04-29T01:40:11;10.10;99.90
10788;DHT22;5446;50.826;4.380;2023-04-29T01:42:45;10.10;99.90
10788;DHT22;5446;50.826;4.380;2023-04-29T01:45:15;10.10;99.90
10788;DHT22;5446;50.826;4.380;2023-04-29T01:47:46;10.10;99.90
10788;DHT22;5446;50.826;4.380;2023-04-29T01:50:13;10.00;99.90
10788;DHT22;5446;50.826;4.380;2023-04-29T01:52:39;10.00;99.90
10788;DHT22;5446;50.826;4.380;2023-04-29T01:55:05;10.00;99.90
10788;DHT22;5446;50.826;4.380;2023-04-29T01:57:31;9.90;99.90
10788;DHT22;5446;50.826;4.380;2023-04-29T01:59:57;9.90;99.90
10788;DHT22;5446;50.826;4.380;2023-04-29T02:02:23;9.90;99.90
10788;DHT22;5446;50.826;4.380;2023-04-29T02:04:49;9.90;99.90
10788;DHT22;5446;50.826;4.380;2023-04-29T02:07:16;10.00;99.90
10788;DHT22;5446;50.826;4.380;2023-04-29T02:09:42;10.00;99.90
10788;DHT22;5446;50.826;4.380;2023-04-29T02:12:08;10.00;99.90
10788;DHT22;5446;50.826;4.380;2023-04-29T02:14:34;10.00;99.90
10788;DHT22;5446;50.826;4.380;2023-04-29T02:17:00;10.00;99.90
10788;DHT22;5446;50.826;4.380;2023-04-29T02:19:26;9.90;99.90
10788;DHT22;5446;50.826;4.380;2023-04-29T02:21:51;9.90;99.90
10788;DHT22;5446;50.826;4.380;2023-04-29T02:24:17;9.90;99.90
10788;DHT22;5446;50.826;4.380;2023-04-29T02:26:43;9.90;99.90
10788;DHT22;5446;50.826;4.380;2023-04-29T02:29:09;9.90;99.90
10788;DHT22;5446;50.826;4.380;2023-04-29T02:31:34;10.00;99.90
10788;DHT22;5446;50.826;4.380;2023-04-29T02:34:00;9.90;99.90
10788;DHT22;5446;50.826;4.380;2023-04-29T02:36:26;9.80;99.90
10788;DHT22;5446;50.826;4.380;2023-04-29T02:38:52;9.70;99.90
10788;DHT22;5446;50.826;4.380;2023-04-29T02:41:20;9.60;99.90
10788;DHT22;5446;50.826;4.380;2023-04-29T02:43:46;9.60;99.90
10788;DHT22;5446;50.826;4.380;2023-04-29T02:46:13;9.60;99.90
10788;DHT22;5446;50.826;4.380;2023-04-29T02:48:40;9.50;99.90
10788;DHT22;5446;50.826;4.380;2023-04-29T02:51:06;9.60;99.90
10788;DHT22;5446;50.826;4.380;2023-04-29T02:53:32;9.60;99.90
10788;DHT22;5446;50.826;4.380;2023-04-29T02:55:58;9.50;99.90
10788;DHT22;5446;50.826;4.380;2023-04-29T02:58:24;9.50;99.90
10788;DHT22;5446;50.826;4.380;2023-04-29T03:00:49;9.40;99.90
10788;DHT22;5446;50.826;4.380;2023-04-29T03:03:15;9.40;99.90
10788;DHT22;5446;50.826;4.380;2023-04-29T03:05:41;9.40;99.90
10788;DHT22;5446;50.826;4.380;2023-04-29T03:08:07;9.50;99.90
10788;DHT22;5446;50.826;4.380;2023-04-29T03:10:35;9.50;99.90
10788;DHT22;5446;50.826;4.380;2023-04-29T03:13:00;9.50;99.90
10788;DHT22;5446;50.826;4.380;2023-04-29T03:15:26;9.50;99.90
10788;DHT22;5446;50.826;4.380;2023-04-29T03:17:52;9.50;99.90
10788;DHT22;5446;50.826;4.380;2023-04-29T03:20:18;9.50;99.90
10788;DHT22;5446;50.826;4.380;2023-04-29T03:22:44;9.50;99.90
10788;DHT22;5446;50.826;4.380;2023-04-29T03:25:11;9.50;99.90
10788;DHT22;5446;50.826;4.380;2023-04-29T03:27:37;9.50;99.90
10788;DHT22;5446;50.826;4.380;2023-04-29T03:30:05;9.50;99.90
10788;DHT22;5446;50.826;4.380;2023-04-29T03:32:31;9.60;99.90
10788;DHT22;5446;50.826;4.380;2023-04-29T03:34:57;9.60;99.90
10788;DHT22;5446;50.826;4.380;2023-04-29T03:37:22;9.50;99.90
10788;DHT22;5446;50.826;4.380;2023-04-29T03:39:48;9.50;99.90
10788;DHT22;5446;50.826;4.380;2023-04-29T03:42:14;9.50;99.90
10788;DHT22;5446;50.826;4.380;2023-04-29T03:44:40;9.50;99.90
10788;DHT22;5446;50.826;4.380;2023-04-29T03:47:05;9.50;99.90
10788;DHT22;5446;50.826;4.380;2023-04-29T03:49:31;9.40;99.90
10788;DHT22;5446;50.826;4.380;2023-04-29T03:51:57;9.50;99.90
10788;DHT22;5446;50.826;4.380;2023-04-29T03:54:23;9.60;99.90
10788;DHT22;5446;50.826;4.380;2023-04-29T03:56:48;9.60;99.90
10788;DHT22;5446;50.826;4.380;2023-04-29T03:59:14;9.50;99.90
10788;DHT22;5446;50.826;4.380;2023-04-29T04:01:40;9.50;99.90
10788;DHT22;5446;50.826;4.380;2023-04-29T04:04:05;9.50;99.90
10788;DHT22;5446;50.826;4.380;2023-04-29T04:06:31;9.50;99.90
10788;DHT22;5446;50.826;4.380;2023-04-29T04:08:57;9.50;99.90
10788;DHT22;5446;50.826;4.380;2023-04-29T04:11:23;9.50;99.90
10788;DHT22;5446;50.826;4.380;2023-04-29T04:13:49;9.50;99.90
10788;DHT22;5446;50.826;4.380;2023-04-29T04:16:15;9.50;99.90
10788;DHT22;5446;50.826;4.380;2023-04-29T04:18:41;9.50;99.90
10788;DHT22;5446;50.826;4.380;2023-04-29T04:21:11;9.50;99.90
10788;DHT22;5446;50.826;4.380;2023-04-29T04:23:37;9.40;99.90
10788;DHT22;5446;50.826;4.380;2023-04-29T04:26:05;9.50;99.90
10788;DHT22;5446;50.826;4.380;2023-04-29T04:28:31;9.50;99.90
10788;DHT22;5446;50.826;4.380;2023-04-29T04:30:57;9.50;99.90
10788;DHT22;5446;50.826;4.380;2023-04-29T04:33:24;9.50;99.90
10788;DHT22;5446;50.826;4.380;2023-04-29T04:35:50;9.50;99.90
10788;DHT22;5446;50.826;4.380;2023-04-29T04:38:16;9.50;99.90
10788;DHT22;5446;50.826;4.380;2023-04-29T04:40:42;9.50;99.90
10788;DHT22;5446;50.826;4.380;2023-04-29T04:43:08;9.50;99.90
10788;DHT22;5446;50.826;4.380;2023-04-29T04:45:34;9.40;99.90
10788;DHT22;5446;50.826;4.380;2023-04-29T04:47:59;9.50;99.90
10788;DHT22;5446;50.826;4.380;2023-04-29T04:50:28;9.40;99.90
10788;DHT22;5446;50.826;4.380;2023-04-29T04:52:55;9.50;99.90
10788;DHT22;5446;50.826;4.380;2023-04-29T04:55:21;9.30;99.90
10788;DHT22;5446;50.826;4.380;2023-04-29T04:57:47;9.40;99.90
10788;DHT22;5446;50.826;4.380;2023-04-29T05:00:13;9.40;99.90
10788;DHT22;5446;50.826;4.380;2023-04-29T05:02:39;9.40;99.90
10788;DHT22;5446;50.826;4.380;2023-04-29T05:05:04;9.40;99.90
10788;DHT22;5446;50.826;4.380;2023-04-29T05:07:31;9.40;99.90
10788;DHT22;5446;50.826;4.380;2023-04-29T05:09:57;9.50;99.90
10788;DHT22;5446;50.826;4.380;2023-04-29T05:12:23;9.40;99.90
10788;DHT22;5446;50.826;4.380;2023-04-29T05:14:57;9.40;99.90
10788;DHT22;5446;50.826;4.380;2023-04-29T05:17:23;9.40;99.90
10788;DHT22;5446;50.826;4.380;2023-04-29T05:19:49;9.40;99.90
10788;DHT22;5446;50.826;4.380;2023-04-29T05:22:15;9.40;99.90
10788;DHT22;5446;50.826;4.380;2023-04-29T05:24:41;9.40;99.90
10788;DHT22;5446;50.826;4.380;2023-04-29T05:27:07;9.50;99.90
10788;DHT22;5446;50.826;4.380;2023-04-29T05:29:32;9.50;99.90
10788;DHT22;5446;50.826;4.380;2023-04-29T05:31:58;9.40;99.90
10788;DHT22;5446;50.826;4.380;2023-04-29T05:34:24;9.40;99.90
10788;DHT22;5446;50.826;4.380;2023-04-29T05:36:50;9.40;99.90
10788;DHT22;5446;50.826;4.380;2023-04-29T05:39:16;9.40;99.90
10788;DHT22;5446;50.826;4.380;2023-04-29T05:41:42;9.50;99.90
10788;DHT22;5446;50.826;4.380;2023-04-29T05:44:08;9.50;99.90
10788;DHT22;5446;50.826;4.380;2023-04-29T05:46:34;9.50;99.90
10788;DHT22;5446;50.826;4.380;2023-04-29T05:49:00;9.50;99.90
10788;DHT22;5446;50.826;4.380;2023-04-29T05:51:26;9.40;99.90
10788;DHT22;5446;50.826;4.380;2023-04-29T05:53:53;9.40;99.90
10788;DHT22;5446;50.826;4.380;2023-04-29T05:56:19;9.30;99.90
10788;DHT22;5446;50.826;4.380;2023-04-29T05:58:44;9.30;99.90
10788;DHT22;5446;50.826;4.380;2023-04-29T06:01:10;9.30;99.90
10788;DHT22;5446;50.826;4.380;2023-04-29T06:03:37;9.40;99.90
10788;DHT22;5446;50.826;4.380;2023-04-29T06:06:03;9.50;99.90
10788;DHT22;5446;50.826;4.380;2023-04-29T06:08:29;9.40;99.90
10788;DHT22;5446;50.826;4.380;2023-04-29T06:10:54;9.50;99.90
10788;DHT22;5446;50.826;4.380;2023-04-29T06:13:20;9.40;99.90
10788;DHT22;5446;50.826;4.380;2023-04-29T06:15:46;9.30;99.90
10788;DHT22;5446;50.826;4.380;2023-04-29T06:18:12;9.20;99.90
10788;DHT22;5446;50.826;4.380;2023-04-29T06:20:38;9.20;99.90
10788;DHT22;5446;50.826;4.380;2023-04-29T06:23:04;9.30;99.90
10788;DHT22;5446;50.826;4.380;2023-04-29T06:25:30;9.30;99.90
10788;DHT22;5446;50.826;4.380;2023-04-29T06:27:56;9.30;99.90
10788;DHT22;5446;50.826;4.380;2023-04-29T06:30:22;9.30;99.90
10788;DHT22;5446;50.826;4.380;2023-04-29T06:32:48;9.20;99.90
10788;DHT22;5446;50.826;4.380;2023-04-29T06:35:14;9.20;99.90
10788;DHT22;5446;50.826;4.380;2023-04-29T06:37:41;9.30;99.90
10788;DHT22;5446;50.826;4.380;2023-04-29T06:42:34;9.20;99.90
10788;DHT22;5446;50.826;4.380;2023-04-29T06:45:01;9.20;99.90
10788;DHT22;5446;50.826;4.380;2023-04-29T06:47:27;9.20;99.90
10788;DHT22;5446;50.826;4.380;2023-04-29T06:49:54;9.30;99.90
10788;DHT22;5446;50.826;4.380;2023-04-29T06:52:20;9.30;99.90
10788;DHT22;5446;50.826;4.380;2023-04-29T06:54:47;9.30;99.90
10788;DHT22;5446;50.826;4.380;2023-04-29T06:57:14;9.30;99.90
10788;DHT22;5446;50.826;4.380;2023-04-29T06:59:40;9.30;99.90
10788;DHT22;5446;50.826;4.380;2023-04-29T07:02:10;9.30;99.90
10788;DHT22;5446;50.826;4.380;2023-04-29T07:04:36;9.30;99.90
10788;DHT22;5446;50.826;4.380;2023-04-29T07:07:03;9.40;99.90
10788;DHT22;5446;50.826;4.380;2023-04-29T07:09:33;9.30;99.90
10788;DHT22;5446;50.826;4.380;2023-04-29T07:12:00;9.30;99.90
10788;DHT22;5446;50.826;4.380;2023-04-29T07:14:30;9.20;99.90
10788;DHT22;5446;50.826;4.380;2023-04-29T07:16:56;9.30;99.90
10788;DHT22;5446;50.826;4.380;2023-04-29T07:19:23;9.40;99.90
10788;DHT22;5446;50.826;4.380;2023-04-29T07:21:50;9.40;99.90
10788;DHT22;5446;50.826;4.380;2023-04-29T07:24:17;9.30;99.90
10788;DHT22;5446;50.826;4.380;2023-04-29T07:26:44;9.30;99.90
10788;DHT22;5446;50.826;4.380;2023-04-29T07:29:13;9.30;99.90
10788;DHT22;5446;50.826;4.380;2023-04-29T07:31:40;9.40;99.90
10788;DHT22;5446;50.826;4.380;2023-04-29T07:34:06;9.40;99.90
10788;DHT22;5446;50.826;4.380;2023-04-29T07:36:31;9.50;99.90
10788;DHT22;5446;50.826;4.380;2023-04-29T07:38:57;9.50;99.90
10788;DHT22;5446;50.826;4.380;2023-04-29T07:41:23;9.50;99.90
10788;DHT22;5446;50.826;4.380;2023-04-29T07:43:49;9.60;99.90
10788;DHT22;5446;50.826;4.380;2023-04-29T07:46:15;9.60;99.90
10788;DHT22;5446;50.826;4.380;2023-04-29T07:48:42;9.70;99.90
10788;DHT22;5446;50.826;4.380;2023-04-29T07:51:13;9.60;99.90
10788;DHT22;5446;50.826;4.380;2023-04-29T07:53:39;9.60;99.90
10788;DHT22;5446;50.826;4.380;2023-04-29T07:56:06;9.70;99.90
10788;DHT22;5446;50.826;4.380;2023-04-29T07:58:32;9.80;99.90
10788;DHT22;5446;50.826;4.380;2023-04-29T08:01:08;9.80;99.90
10788;DHT22;5446;50.826;4.380;2023-04-29T08:03:35;9.80;99.90
10788;DHT22;5446;50.826;4.380;2023-04-29T08:06:01;9.90;99.90
10788;DHT22;5446;50.826;4.380;2023-04-29T08:08:29;9.90;99.90
10788;DHT22;5446;50.826;4.380;2023-04-29T08:10:55;9.90;99.90
10788;DHT22;5446;50.826;4.380;2023-04-29T08:13:20;10.00;99.90
10788;DHT22;5446;50.826;4.380;2023-04-29T08:15:46;10.20;99.90
10788;DHT22;5446;50.826;4.380;2023-04-29T08:18:12;10.20;99.90
10788;DHT22;5446;50.826;4.380;2023-04-29T08:20:38;10.30;99.90
10788;DHT22;5446;50.826;4.380;2023-04-29T08:23:03;10.50;99.90
10788;DHT22;5446;50.826;4.380;2023-04-29T08:25:29;10.50;99.90
10788;DHT22;5446;50.826;4.380;2023-04-29T08:27:55;10.50;99.90
10788;DHT22;5446;50.826;4.380;2023-04-29T08:30:22;10.60;99.90
10788;DHT22;5446;50.826;4.380;2023-04-29T08:32:48;10.60;99.90
10788;DHT22;5446;50.826;4.380;2023-04-29T08:35:14;10.70;99.90
10788;DHT22;5446;50.826;4.380;2023-04-29T08:37:39;10.90;99.90
10788;DHT22;5446;50.826;4.380;2023-04-29T08:40:07;10.90;99.90
10788;DHT22;5446;50.826;4.380;2023-04-29T08:42:35;10.90;99.90
10788;DHT22;5446;50.826;4.380;2023-04-29T08:45:02;11.10;99.90
10788;DHT22;5446;50.826;4.380;2023-04-29T08:47:32;11.20;99.90
10788;DHT22;5446;50.826;4.380;2023-04-29T08:50:05;11.40;99.90
10788;DHT22;5446;50.826;4.380;2023-04-29T08:52:31;11.30;99.90
10788;DHT22;5446;50.826;4.380;2023-04-29T08:54:58;11.30;99.90
10788;DHT22;5446;50.826;4.380;2023-04-29T08:57:27;11.40;99.90
10788;DHT22;5446;50.826;4.380;2023-04-29T08:59:54;11.40;99.90
10788;DHT22;5446;50.826;4.380;2023-04-29T09:02:20;11.40;99.90
10788;DHT22;5446;50.826;4.380;2023-04-29T09:07:19;11.30;99.90
10788;DHT22;5446;50.826;4.380;2023-04-29T09:09:45;11.40;99.90
10788;DHT22;5446;50.826;4.380;2023-04-29T09:12:12;11.30;99.90
10788;DHT22;5446;50.826;4.380;2023-04-29T09:14:37;11.20;99.90
10788;DHT22;5446;50.826;4.380;2023-04-29T09:17:03;11.20;99.90
10788;DHT22;5446;50.826;4.380;2023-04-29T09:19:33;11.20;99.90
10788;DHT22;5446;50.826;4.380;2023-04-29T09:22:04;11.20;99.90
10788;DHT22;5446;50.826;4.380;2023-04-29T09:24:31;11.20;99.90
10788;DHT22;5446;50.826;4.380;2023-04-29T09:26:58;11.20;99.90
10788;DHT22;5446;50.826;4.380;2023-04-29T09:29:24;11.20;99.90
10788;DHT22;5446;50.826;4.380;2023-04-29T09:31:51;11.20;99.90
10788;DHT22;5446;50.826;4.380;2023-04-29T09:34:34;11.30;99.90
10788;DHT22;5446;50.826;4.380;2023-04-29T09:37:02;11.40;99.90
10788;DHT22;5446;50.826;4.380;2023-04-29T09:39:38;11.60;99.90
10788;DHT22;5446;50.826;4.380;2023-04-29T09:42:04;11.70;99.90
10788;DHT22;5446;50.826;4.380;2023-04-29T09:44:32;12.00;99.90
10788;DHT22;5446;50.826;4.380;2023-04-29T09:47:07;12.10;99.90
10788;DHT22;5446;50.826;4.380;2023-04-29T09:49:41;12.00;99.90
10788;DHT22;5446;50.826;4.380;2023-04-29T09:52:11;12.10;99.90
10788;DHT22;5446;50.826;4.380;2023-04-29T09:54:39;12.10;99.90
10788;DHT22;5446;50.826;4.380;2023-04-29T09:57:06;12.00;99.90
10788;DHT22;5446;50.826;4.380;2023-04-29T09:59:33;12.20;99.90
10788;DHT22;5446;50.826;4.380;2023-04-29T10:02:01;12.40;99.90
10788;DHT22;5446;50.826;4.380;2023-04-29T10:04:34;12.20;99.90
10788;DHT22;5446;50.826;4.380;2023-04-29T10:07:01;12.10;99.90
10788;DHT22;5446;50.826;4.380;2023-04-29T10:09:27;12.30;99.90
10788;DHT22;5446;50.826;4.380;2023-04-29T10:11:53;12.40;99.90
10788;DHT22;5446;50.826;4.380;2023-04-29T10:14:23;12.40;99.90
10788;DHT22;5446;50.826;4.380;2023-04-29T10:16:58;12.60;99.90
10788;DHT22;5446;50.826;4.380;2023-04-29T10:20:01;12.60;99.90
10788;DHT22;5446;50.826;4.380;2023-04-29T10:22:43;12.90;99.90
10788;DHT22;5446;50.826;4.380;2023-04-29T10:25:10;13.00;99.90
10788;DHT22;5446;50.826;4.380;2023-04-29T10:27:36;13.00;99.90
10788;DHT22;5446;50.826;4.380;2023-04-29T10:30:06;13.20;99.90
10788;DHT22;5446;50.826;4.380;2023-04-29T10:32:35;13.10;99.90
10788;DHT22;5446;50.826;4.380;2023-04-29T10:35:01;13.30;99.90
10788;DHT22;5446;50.826;4.380;2023-04-29T10:37:30;13.50;99.90
10788;DHT22;5446;50.826;4.380;2023-04-29T10:40:17;13.50;99.90
10788;DHT22;5446;50.826;4.380;2023-04-29T10:42:51;13.40;99.90
10788;DHT22;5446;50.826;4.380;2023-04-29T10:45:28;13.20;99.90
10788;DHT22;5446;50.826;4.380;2023-04-29T10:53:18;13.20;99.90
10788;DHT22;5446;50.826;4.380;2023-04-29T10:55:56;13.10;99.90
10788;DHT22;5446;50.826;4.380;2023-04-29T10:58:43;12.90;99.90
10788;DHT22;5446;50.826;4.380;2023-04-29T11:01:14;13.00;99.90
10788;DHT22;5446;50.826;4.380;2023-04-29T11:03:51;13.20;99.90
10788;DHT22;5446;50.826;4.380;2023-04-29T11:06:24;13.20;99.90
10788;DHT22;5446;50.826;4.380;2023-04-29T11:11:55;13.20;99.90
10788;DHT22;5446;50.826;4.380;2023-04-29T11:14:42;13.40;99.90
10788;DHT22;5446;50.826;4.380;2023-04-29T11:17:12;13.60;99.90
10788;DHT22;5446;50.826;4.380;2023-04-29T11:19:45;13.70;99.90
10788;DHT22;5446;50.826;4.380;2023-04-29T11:24:56;14.10;99.90
10788;DHT22;5446;50.826;4.380;2023-04-29T11:27:35;13.60;99.90
10788;DHT22;5446;50.826;4.380;2023-04-29T11:30:03;13.50;99.90
10788;DHT22;5446;50.826;4.380;2023-04-29T11:32:34;13.60;99.90
10788;DHT22;5446;50.826;4.380;2023-04-29T11:35:13;13.80;99.90
10788;DHT22;5446;50.826;4.380;2023-04-29T11:37:41;13.80;99.90
10788;DHT22;5446;50.826;4.380;2023-04-29T11:40:08;13.90;99.90
10788;DHT22;5446;50.826;4.380;2023-04-29T11:42:35;14.00;99.90
10788;DHT22;5446;50.826;4.380;2023-04-29T11:45:01;14.10;99.90
10788;DHT22;5446;50.826;4.380;2023-04-29T11:47:28;14.10;99.90
10788;DHT22;5446;50.826;4.380;2023-04-29T11:50:08;14.20;99.90
10788;DHT22;5446;50.826;4.380;2023-04-29T11:52:37;14.50;99.90
10788;DHT22;5446;50.826;4.380;2023-04-29T11:55:04;14.60;99.90
10788;DHT22;5446;50.826;4.380;2023-04-29T11:57:30;14.60;99.90
10788;DHT22;5446;50.826;4.380;2023-04-29T11:59:57;14.60;99.90
10788;DHT22;5446;50.826;4.380;2023-04-29T12:02:30;14.60;99.90
10788;DHT22;5446;50.826;4.380;2023-04-29T12:04:56;14.40;99.90
10788;DHT22;5446;50.826;4.380;2023-04-29T12:10:46;14.30;99.90
10788;DHT22;5446;50.826;4.380;2023-04-29T12:13:12;14.00;99.90
10788;DHT22;5446;50.826;4.380;2023-04-29T12:15:38;13.90;99.90
10788;DHT22;5446;50.826;4.380;2023-04-29T12:18:05;13.80;99.90
10788;DHT22;5446;50.826;4.380;2023-04-29T12:20:31;13.90;99.90
10788;DHT22;5446;50.826;4.380;2023-04-29T12:23:19;13.70;99.90
10788;DHT22;5446;50.826;4.380;2023-04-29T12:25:58;13.90;99.90
10788;DHT22;5446;50.826;4.380;2023-04-29T12:28:25;13.90;99.90
10788;DHT22;5446;50.826;4.380;2023-04-29T12:30:52;13.90;99.90
10788;DHT22;5446;50.826;4.380;2023-04-29T12:33:26;14.10;99.90
10788;DHT22;5446;50.826;4.380;2023-04-29T12:35:56;14.40;99.90
10788;DHT22;5446;50.826;4.380;2023-04-29T12:38:24;14.40;99.90
10788;DHT22;5446;50.826;4.380;2023-04-29T12:40:58;14.40;99.90
10788;DHT22;5446;50.826;4.380;2023-04-29T12:43:29;14.80;99.90
10788;DHT22;5446;50.826;4.380;2023-04-29T12:46:01;14.80;99.90
10788;DHT22;5446;50.826;4.380;2023-04-29T12:48:31;14.80;99.90
10788;DHT22;5446;50.826;4.380;2023-04-29T12:50:57;14.70;99.90
10788;DHT22;5446;50.826;4.380;2023-04-29T12:53:25;14.80;99.90
10788;DHT22;5446;50.826;4.380;2023-04-29T12:55:51;14.70;99.90
10788;DHT22;5446;50.826;4.380;2023-04-29T12:58:18;14.50;99.90
10788;DHT22;5446;50.826;4.380;2023-04-29T13:00:43;14.80;99.90
10788;DHT22;5446;50.826;4.380;2023-04-29T13:03:09;15.00;99.90
10788;DHT22;5446;50.826;4.380;2023-04-29T13:05:35;14.90;99.90
10788;DHT22;5446;50.826;4.380;2023-04-29T13:08:01;14.60;99.90
10788;DHT22;5446;50.826;4.380;2023-04-29T13:10:27;14.60;99.90
10788;DHT22;5446;50.826;4.380;2023-04-29T13:12:53;14.70;99.90
10788;DHT22;5446;50.826;4.380;2023-04-29T13:15:19;14.70;99.90
10788;DHT22;5446;50.826;4.380;2023-04-29T13:17:46;14.80;99.90
10788;DHT22;5446;50.826;4.380;2023-04-29T13:20:12;14.80;99.90
10788;DHT22;5446;50.826;4.380;2023-04-29T13:22:38;14.80;99.90
10788;DHT22;5446;50.826;4.380;2023-04-29T13:25:04;15.10;99.90
10788;DHT22;5446;50.826;4.380;2023-04-29T13:27:30;15.10;99.90
10788;DHT22;5446;50.826;4.380;2023-04-29T13:29:56;15.10;99.90
10788;DHT22;5446;50.826;4.380;2023-04-29T13:32:22;15.10;99.90
10788;DHT22;5446;50.826;4.380;2023-04-29T13:34:52;15.00;99.90
10788;DHT22;5446;50.826;4.380;2023-04-29T13:37:24;15.00;99.90
10788;DHT22;5446;50.826;4.380;2023-04-29T13:39:50;14.80;99.90
10788;DHT22;5446;50.826;4.380;2023-04-29T13:42:16;14.80;99.90
10788;DHT22;5446;50.826;4.380;2023-04-29T13:44:42;14.80;99.90
10788;DHT22;5446;50.826;4.380;2023-04-29T13:47:12;15.00;99.90
10788;DHT22;5446;50.826;4.380;2023-04-29T13:49:39;15.10;99.90
10788;DHT22;5446;50.826;4.380;2023-04-29T13:52:06;15.10;99.90
10788;DHT22;5446;50.826;4.380;2023-04-29T13:54:32;15.00;99.90
10788;DHT22;5446;50.826;4.380;2023-04-29T13:56:58;15.10;99.90
10788;DHT22;5446;50.826;4.380;2023-04-29T13:59:24;15.00;99.90
10788;DHT22;5446;50.826;4.380;2023-04-29T14:01:50;15.00;99.90
10788;DHT22;5446;50.826;4.380;2023-04-29T14:04:16;14.90;99.90
10788;DHT22;5446;50.826;4.380;2023-04-29T14:06:44;15.00;99.90
10788;DHT22;5446;50.826;4.380;2023-04-29T14:09:10;15.30;99.90
10788;DHT22;5446;50.826;4.380;2023-04-29T14:11:36;15.40;99.90
10788;DHT22;5446;50.826;4.380;2023-04-29T14:14:02;15.40;99.90
10788;DHT22;5446;50.826;4.380;2023-04-29T14:16:28;15.40;99.90
10788;DHT22;5446;50.826;4.380;2023-04-29T14:18:54;15.50;99.90
10788;DHT22;5446;50.826;4.380;2023-04-29T14:21:20;15.60;99.90
10788;DHT22;5446;50.826;4.380;2023-04-29T14:23:49;15.60;99.90
10788;DHT22;5446;50.826;4.380;2023-04-29T14:26:15;15.70;99.90
10788;DHT22;5446;50.826;4.380;2023-04-29T14:28:41;15.80;99.90
10788;DHT22;5446;50.826;4.380;2023-04-29T14:31:07;15.80;99.90
10788;DHT22;5446;50.826;4.380;2023-04-29T14:33:32;15.70;99.90
10788;DHT22;5446;50.826;4.380;2023-04-29T14:35:58;15.90;99.90
10788;DHT22;5446;50.826;4.380;2023-04-29T14:38:25;15.80;99.90
10788;DHT22;5446;50.826;4.380;2023-04-29T14:40:51;15.70;99.90
10788;DHT22;5446;50.826;4.380;2023-04-29T14:43:17;15.70;99.90
10788;DHT22;5446;50.826;4.380;2023-04-29T14:45:43;15.80;99.90
10788;DHT22;5446;50.826;4.380;2023-04-29T14:48:10;15.90;99.90
10788;DHT22;5446;50.826;4.380;2023-04-29T14:50:36;15.70;99.90
10788;DHT22;5446;50.826;4.380;2023-04-29T14:53:02;15.60;99.90
10788;DHT22;5446;50.826;4.380;2023-04-29T14:55:28;15.50;99.90
10788;DHT22;5446;50.826;4.380;2023-04-29T14:57:54;15.50;99.90
10788;DHT22;5446;50.826;4.380;2023-04-29T15:00:20;15.70;99.90
10788;DHT22;5446;50.826;4.380;2023-04-29T15:02:46;15.90;99.90
10788;DHT22;5446;50.826;4.380;2023-04-29T15:05:11;15.80;99.90
10788;DHT22;5446;50.826;4.380;2023-04-29T15:07:37;16.00;99.90
10788;DHT22;5446;50.826;4.380;2023-04-29T15:10:03;16.10;99.90
10788;DHT22;5446;50.826;4.380;2023-04-29T15:12:31;16.10;99.90
10788;DHT22;5446;50.826;4.380;2023-04-29T15:14:57;15.90;99.90
10788;DHT22;5446;50.826;4.380;2023-04-29T15:17:22;15.90;99.90
10788;DHT22;5446;50.826;4.380;2023-04-29T15:19:48;15.70;99.90
10788;DHT22;5446;50.826;4.380;2023-04-29T15:22:14;15.70;99.90
10788;DHT22;5446;50.826;4.380;2023-04-29T15:24:40;15.70;99.90
10788;DHT22;5446;50.826;4.380;2023-04-29T15:27:05;15.70;99.90
10788;DHT22;5446;50.826;4.380;2023-04-29T15:29:31;15.60;99.90
10788;DHT22;5446;50.826;4.380;2023-04-29T15:31:59;15.50;99.90
10788;DHT22;5446;50.826;4.380;2023-04-29T15:34:25;15.40;99.90
10788;DHT22;5446;50.826;4.380;2023-04-29T15:36:50;15.20;99.90
10788;DHT22;5446;50.826;4.380;2023-04-29T15:39:16;15.10;99.90
10788;DHT22;5446;50.826;4.380;2023-04-29T15:41:42;15.30;99.90
10788;DHT22;5446;50.826;4.380;2023-04-29T15:44:08;15.50;99.90
10788;DHT22;5446;50.826;4.380;2023-04-29T15:46:33;15.30;99.90
10788;DHT22;5446;50.826;4.380;2023-04-29T15:48:59;15.30;99.90
10788;DHT22;5446;50.826;4.380;2023-04-29T15:51:25;15.40;99.90
10788;DHT22;5446;50.826;4.380;2023-04-29T15:53:51;15.30;99.90
10788;DHT22;5446;50.826;4.380;2023-04-29T15:56:17;15.30;99.90
10788;DHT22;5446;50.826;4.380;2023-04-29T15:58:43;15.30;99.90
10788;DHT22;5446;50.826;4.380;2023-04-29T16:01:08;15.30;99.90
10788;DHT22;5446;50.826;4.380;2023-04-29T16:03:34;15.10;99.90
10788;DHT22;5446;50.826;4.380;2023-04-29T16:06:00;15.20;99.90
10788;DHT22;5446;50.826;4.380;2023-04-29T16:08:26;15.30;99.90
10788;DHT22;5446;50.826;4.380;2023-04-29T16:10:51;15.40;99.90
10788;DHT22;5446;50.826;4.380;2023-04-29T16:13:17;15.30;99.90
10788;DHT22;5446;50.826;4.380;2023-04-29T16:15:43;15.30;99.90
10788;DHT22;5446;50.826;4.380;2023-04-29T16:18:09;15.30;99.90
10788;DHT22;5446;50.826;4.380;2023-04-29T16:20:35;15.40;99.90